Time;durP1;ratioP1;P1;durP2;ratioP2;P2;SDS_P1;SDS_P2;PMS_P1;PMS_P2;Temp;Humidity;BMP_temperature;BMP_pressure;BME280_temperature;BME280_humidity;BME280_pressure;Samples;Min_cycle;Max_cycle;Signal;HPM_P1;HPM_P2
2022/11/14 00:02:08;;;;;;;66.07;34.67;;;;;;;;;;1859295;77;26624;-68
2022/11/14 00:04:36;;;;;;;62.53;34.07;;;;;;;;;;1893295;75;26237;-68
2022/11/14 00:07:05;;;;;;;61.00;34.33;;;;;;;;;;1893578;75;26245;-68
2022/11/14 00:09:34;;;;;;;66.57;34.67;;;;;;;;;;1911065;74;26227;-69
2022/11/14 00:12:03;;;;;;;65.03;33.80;;;;;;;;;;1934059;74;26311;-68
2022/11/14 00:14:32;;;;;;;68.47;34.57;;;;;;;;;;1934359;74;26243;-68
2022/11/14 00:17:01;;;;;;;67.27;35.10;;;;;;;;;;1837950;77;26352;-68
2022/11/14 00:19:29;;;;;;;65.00;35.30;;;;;;;;;;1893911;75;26454;-68
2022/11/14 00:21:59;;;;;;;66.30;36.40;;;;;;;;;;1910966;74;26513;-69
2022/11/14 00:24:27;;;;;;;64.43;35.43;;;;;;;;;;1933944;72;26572;-69
2022/11/14 00:26:56;;;;;;;68.27;38.20;;;;;;;;;;1934176;74;26301;-69
2022/11/14 00:29:24;;;;;;;69.50;37.40;;;;;;;;;;1911405;74;26255;-69
2022/11/14 00:31:53;;;;;;;61.77;35.60;;;;;;;;;;1859858;77;26257;-68
2022/11/14 00:34:22;;;;;;;63.90;35.50;;;;;;;;;;1893495;75;26319;-69
2022/11/14 00:36:51;;;;;;;75.00;36.80;;;;;;;;;;1911296;74;26324;-68
2022/11/14 00:39:20;;;;;;;69.53;36.80;;;;;;;;;;1813037;77;26322;-68
2022/11/14 00:41:49;;;;;;;74.03;37.50;;;;;;;;;;1893275;74;26286;-69
2022/11/14 00:44:19;;;;;;;69.33;36.40;;;;;;;;;;1893454;75;26412;-69
2022/11/14 00:46:47;;;;;;;69.60;36.30;;;;;;;;;;1934203;74;26308;-69
2022/11/14 00:49:17;;;;;;;74.83;37.63;;;;;;;;;;1934439;74;26305;-69
2022/11/14 00:51:46;;;;;;;83.03;38.57;;;;;;;;;;1934406;74;26243;-69
2022/11/14 00:54:15;;;;;;;73.47;37.33;;;;;;;;;;1934131;74;26401;-69
2022/11/14 00:56:44;;;;;;;76.03;37.17;;;;;;;;;;1859624;77;26272;-69
2022/11/14 00:59:13;;;;;;;77.77;36.13;;;;;;;;;;1910830;74;26646;-69
2022/11/14 01:01:42;;;;;;;87.30;37.30;;;;;;;;;;1933833;74;26509;-69
2022/11/14 01:04:11;;;;;;;81.03;36.97;;;;;;;;;;1859779;77;26240;-69
2022/11/14 01:06:39;;;;;;;83.70;35.83;;;;;;;;;;1892972;75;26245;-69
2022/11/14 01:09:08;;;;;;;66.70;34.57;;;;;;;;;;1910754;74;26231;-69
2022/11/14 01:11:38;;;;;;;81.40;34.90;;;;;;;;;;1860244;77;26775;-69
2022/11/14 01:14:07;;;;;;;75.60;35.20;;;;;;;;;;1934556;74;23397;-68
2022/11/14 01:16:36;;;;;;;80.83;36.43;;;;;;;;;;1934077;74;26265;-69
2022/11/14 01:19:05;;;;;;;89.20;37.67;;;;;;;;;;1859868;77;26738;-68
2022/11/14 01:21:34;;;;;;;86.03;36.23;;;;;;;;;;1893696;75;26319;-68
2022/11/14 01:24:02;;;;;;;88.30;36.70;;;;;;;;;;1893288;75;26276;-69
2022/11/14 01:26:31;;;;;;;79.23;35.13;;;;;;;;;;1893588;74;26304;-69
2022/11/14 01:29:00;;;;;;;83.30;35.27;;;;;;;;;;1873243;74;26220;-69
2022/11/14 01:31:29;;;;;;;91.87;35.97;;;;;;;;;;1860034;77;26315;-68
2022/11/14 01:33:59;;;;;;;81.37;36.77;;;;;;;;;;1911443;74;26680;-68
2022/11/14 01:36:27;;;;;;;76.30;34.67;;;;;;;;;;1934210;74;26235;-68
2022/11/14 01:38:57;;;;;;;69.90;32.80;;;;;;;;;;1859975;77;26330;-68
2022/11/14 01:41:25;;;;;;;88.50;34.23;;;;;;;;;;1936278;74;26263;-68
2022/11/14 01:43:54;;;;;;;96.37;34.93;;;;;;;;;;1913210;74;26284;-68
2022/11/14 01:46:24;;;;;;;94.73;34.83;;;;;;;;;;1912742;74;26321;-68
2022/11/14 01:48:55;;;;;;;76.80;32.97;;;;;;;;;;1860070;77;26268;-68
2022/11/14 01:51:26;;;;;;;96.07;33.73;;;;;;;;;;1893901;75;26365;-68
2022/11/14 01:53:56;;;;;;;94.27;33.50;;;;;;;;;;1934261;74;27115;-68
2022/11/14 01:56:27;;;;;;;93.17;33.00;;;;;;;;;;1933882;74;26250;-69
2022/11/14 01:58:57;;;;;;;87.77;34.13;;;;;;;;;;1859587;77;26871;-69
2022/11/14 02:01:26;;;;;;;100.20;33.57;;;;;;;;;;1910498;74;26243;-68
2022/11/14 02:03:56;;;;;;;90.63;34.27;;;;;;;;;;1934367;74;26243;-69
2022/11/14 02:06:26;;;;;;;99.07;34.60;;;;;;;;;;1894339;75;26241;-69
2022/11/14 02:08:57;;;;;;;97.63;35.40;;;;;;;;;;1893981;75;26545;-69
2022/11/14 02:11:28;;;;;;;85.07;34.33;;;;;;;;;;1936000;74;26688;-69
2022/11/14 02:13:57;;;;;;;106.97;36.00;;;;;;;;;;1893483;75;26727;-69
2022/11/14 02:16:26;;;;;;;100.90;34.47;;;;;;;;;;1893630;75;26726;-69
2022/11/14 02:18:54;;;;;;;103.13;34.93;;;;;;;;;;1934600;74;26243;-69
2022/11/14 02:21:24;;;;;;;93.85;33.95;;;;;;;;;;1894004;75;26821;-69
2022/11/14 02:23:53;;;;;;;93.67;34.20;;;;;;;;;;1934757;74;26239;-69
2022/11/14 02:26:23;;;;;;;115.00;35.97;;;;;;;;;;1893360;75;26497;-69
2022/11/14 02:28:52;;;;;;;111.47;37.03;;;;;;;;;;1934380;74;26285;-69
2022/11/14 02:31:21;;;;;;;89.37;33.90;;;;;;;;;;1893766;75;26253;-69
2022/11/14 02:33:50;;;;;;;88.67;36.13;;;;;;;;;;1936292;74;26927;-69
2022/11/14 02:36:19;;;;;;;126.67;36.30;;;;;;;;;;1893862;75;26698;-69
2022/11/14 02:38:49;;;;;;;108.27;34.17;;;;;;;;;;1934438;74;26705;-69
2022/11/14 02:41:18;;;;;;;139.80;36.07;;;;;;;;;;1893247;74;26277;-69
2022/11/14 02:43:47;;;;;;;79.53;32.90;;;;;;;;;;1852355;76;26236;-69
2022/11/14 02:46:17;;;;;;;93.00;33.27;;;;;;;;;;1895440;75;26315;-70
2022/11/14 02:48:45;;;;;;;82.03;32.47;;;;;;;;;;1935106;74;26305;-69
2022/11/14 02:51:14;;;;;;;109.30;33.80;;;;;;;;;;1894253;75;26253;-69
2022/11/14 02:53:43;;;;;;;105.67;34.37;;;;;;;;;;1871971;75;26254;-69
2022/11/14 02:56:11;;;;;;;89.07;32.57;;;;;;;;;;1934525;74;27279;-69
2022/11/14 02:58:40;;;;;;;79.27;29.93;;;;;;;;;;1894120;75;26295;-69
2022/11/14 03:01:09;;;;;;;95.03;31.23;;;;;;;;;;1934233;74;26231;-70
2022/11/14 03:03:37;;;;;;;71.33;30.97;;;;;;;;;;1893640;75;26330;-69
2022/11/14 03:06:06;;;;;;;93.10;31.23;;;;;;;;;;1934369;74;26307;-69
2022/11/14 03:08:35;;;;;;;78.43;30.67;;;;;;;;;;1893597;75;26329;-69
2022/11/14 03:11:07;;;;;;;82.30;30.97;;;;;;;;;;1871536;75;26341;-69
2022/11/14 03:13:36;;;;;;;83.93;30.77;;;;;;;;;;1934449;74;26224;-69
2022/11/14 03:16:09;;;;;;;89.43;31.30;;;;;;;;;;1893180;75;26853;-69
2022/11/14 03:18:38;;;;;;;70.20;30.50;;;;;;;;;;1933944;74;26693;-69
2022/11/14 03:21:06;;;;;;;76.90;30.10;;;;;;;;;;1893558;75;26903;-69
2022/11/14 03:23:35;;;;;;;79.47;31.47;;;;;;;;;;1852569;76;26236;-69
2022/11/14 03:26:05;;;;;;;88.53;31.47;;;;;;;;;;1895320;75;26281;-69
2022/11/14 03:28:34;;;;;;;93.83;32.90;;;;;;;;;;1936307;74;26184;-69
2022/11/14 03:31:04;;;;;;;68.37;29.53;;;;;;;;;;1895553;75;26213;-69
2022/11/14 03:33:33;;;;;;;72.90;30.50;;;;;;;;;;1936118;74;26186;-69
2022/11/14 03:36:01;;;;;;;79.83;30.63;;;;;;;;;;1895469;75;26269;-69
2022/11/14 03:38:30;;;;;;;72.53;29.07;;;;;;;;;;1895577;75;26213;-69
2022/11/14 03:40:59;;;;;;;67.83;29.30;;;;;;;;;;1936172;74;26220;-69
2022/11/14 03:43:31;;;;;;;72.60;28.97;;;;;;;;;;1895446;75;26213;-69
2022/11/14 03:46:00;;;;;;;64.77;28.73;;;;;;;;;;1936273;74;26772;-69
2022/11/14 03:48:29;;;;;;;60.73;27.50;;;;;;;;;;1895483;75;26285;-69
2022/11/14 03:50:58;;;;;;;68.57;29.03;;;;;;;;;;1895422;75;26217;-69
2022/11/14 03:53:27;;;;;;;61.97;29.13;;;;;;;;;;1934269;74;26224;-69
2022/11/14 03:55:55;;;;;;;59.83;27.33;;;;;;;;;;1895334;75;26981;-69
2022/11/14 03:58:25;;;;;;;70.37;28.93;;;;;;;;;;1873354;75;26714;-69
2022/11/14 04:00:55;;;;;;;66.03;28.53;;;;;;;;;;1936007;74;26672;-69
2022/11/14 04:03:24;;;;;;;56.57;26.20;;;;;;;;;;1913785;74;26242;-69
2022/11/14 04:05:54;;;;;;;57.10;26.87;;;;;;;;;;1895392;75;26202;-69
2022/11/14 04:08:22;;;;;;;52.07;25.83;;;;;;;;;;1936296;74;26253;-69
2022/11/14 04:10:51;;;;;;;60.77;27.40;;;;;;;;;;1895518;75;26202;-69
2022/11/14 04:13:19;;;;;;;58.03;28.07;;;;;;;;;;1847396;75;26218;-69
2022/11/14 04:15:50;;;;;;;58.70;27.20;;;;;;;;;;1936181;74;26188;-69
2022/11/14 04:18:18;;;;;;;56.07;27.10;;;;;;;;;;1935930;74;26179;-69
2022/11/14 04:20:47;;;;;;;54.07;26.27;;;;;;;;;;1913199;74;26180;-69
2022/11/14 04:23:16;;;;;;;52.93;25.93;;;;;;;;;;1895514;75;26223;-69
2022/11/14 04:25:45;;;;;;;55.83;26.73;;;;;;;;;;1935968;74;26765;-69
2022/11/14 04:28:13;;;;;;;53.90;26.03;;;;;;;;;;1895512;75;26286;-69
2022/11/14 04:30:44;;;;;;;54.53;26.50;;;;;;;;;;1936129;74;26988;-69
2022/11/14 04:33:13;;;;;;;50.53;25.17;;;;;;;;;;1895477;75;26210;-69
2022/11/14 04:35:42;;;;;;;52.10;26.30;;;;;;;;;;1936368;74;26253;-69
2022/11/14 04:38:10;;;;;;;50.17;25.83;;;;;;;;;;1894735;75;26338;-69
2022/11/14 04:40:39;;;;;;;54.87;26.27;;;;;;;;;;1871583;74;26245;-69
2022/11/14 04:43:07;;;;;;;51.00;25.53;;;;;;;;;;1871183;75;27429;-69
2022/11/14 04:45:37;;;;;;;50.27;25.87;;;;;;;;;;1893542;75;26317;-69
2022/11/14 04:48:06;;;;;;;47.10;24.60;;;;;;;;;;1934358;74;26587;-69
2022/11/14 04:50:35;;;;;;;41.43;23.63;;;;;;;;;;1893782;75;26252;-69
2022/11/14 04:53:03;;;;;;;49.77;25.93;;;;;;;;;;1934527;74;26235;-69
2022/11/14 04:55:33;;;;;;;49.60;25.60;;;;;;;;;;1893681;75;26258;-69
2022/11/14 04:58:03;;;;;;;50.17;26.57;;;;;;;;;;1935600;74;26223;-69
2022/11/14 05:00:32;;;;;;;51.53;26.23;;;;;;;;;;1862995;75;616178;-69
2022/11/14 05:03:02;;;;;;;48.50;25.03;;;;;;;;;;1767138;81;26306;-69
2022/11/14 05:05:31;;;;;;;51.40;27.87;;;;;;;;;;1765776;81;26286;-69
2022/11/14 05:08:01;;;;;;;52.03;27.17;;;;;;;;;;1801440;79;26878;-69
2022/11/14 05:10:29;;;;;;;54.03;27.27;;;;;;;;;;1812247;79;26297;-69
2022/11/14 05:12:58;;;;;;;58.57;28.37;;;;;;;;;;1812349;79;26223;-69
2022/11/14 05:15:27;;;;;;;53.57;27.43;;;;;;;;;;1811934;79;26345;-69
2022/11/14 05:17:57;;;;;;;58.40;27.97;;;;;;;;;;1810105;79;26332;-69
2022/11/14 05:20:26;;;;;;;59.23;28.40;;;;;;;;;;1810406;79;26279;-69
2022/11/14 05:22:55;;;;;;;67.40;29.63;;;;;;;;;;1810759;79;26759;-69
2022/11/14 05:25:23;;;;;;;59.40;29.17;;;;;;;;;;1810795;79;26675;-69
2022/11/14 05:27:52;;;;;;;59.17;27.53;;;;;;;;;;1801244;79;26377;-69
2022/11/14 05:30:21;;;;;;;56.93;28.30;;;;;;;;;;1810527;79;26278;-69
2022/11/14 05:32:51;;;;;;;53.03;26.83;;;;;;;;;;1810740;79;26270;-68
2022/11/14 05:35:19;;;;;;;56.13;26.93;;;;;;;;;;1810776;79;26340;-69
2022/11/14 05:37:48;;;;;;;59.43;27.70;;;;;;;;;;1810571;79;26313;-69
2022/11/14 05:40:18;;;;;;;62.97;26.73;;;;;;;;;;1810515;79;26279;-69
2022/11/14 05:42:47;;;;;;;64.83;25.73;;;;;;;;;;1801067;79;26989;-69
2022/11/14 05:45:17;;;;;;;63.87;26.77;;;;;;;;;;1812465;79;24944;-69
2022/11/14 05:47:45;;;;;;;56.30;25.30;;;;;;;;;;1812473;79;26274;-69
2022/11/14 05:50:15;;;;;;;54.27;24.60;;;;;;;;;;1805566;78;27145;-69
2022/11/14 05:52:44;;;;;;;51.47;24.47;;;;;;;;;;1812570;79;26784;-69
2022/11/14 05:55:12;;;;;;;52.30;23.33;;;;;;;;;;1723959;82;26735;-69
2022/11/14 05:57:41;;;;;;;50.60;23.40;;;;;;;;;;1742715;82;26254;-69
2022/11/14 06:00:11;;;;;;;51.60;24.13;;;;;;;;;;1742469;82;26351;-69
2022/11/14 06:02:40;;;;;;;44.47;22.87;;;;;;;;;;1746942;82;26239;-69
2022/11/14 06:05:09;;;;;;;50.17;23.77;;;;;;;;;;1748551;81;26253;-69
2022/11/14 06:07:38;;;;;;;48.80;24.37;;;;;;;;;;1748809;81;26250;-69
2022/11/14 06:10:07;;;;;;;54.90;24.73;;;;;;;;;;1766674;81;27350;-69
2022/11/14 06:12:36;;;;;;;53.37;24.57;;;;;;;;;;1766422;81;26756;-69
2022/11/14 06:15:05;;;;;;;50.20;24.27;;;;;;;;;;1801492;79;26271;-69
2022/11/14 06:17:34;;;;;;;56.17;25.20;;;;;;;;;;1810979;79;27099;-69
2022/11/14 06:20:03;;;;;;;56.63;26.37;;;;;;;;;;1810920;79;26263;-69
2022/11/14 06:22:32;;;;;;;46.57;23.70;;;;;;;;;;1810656;79;26673;-69
2022/11/14 06:25:00;;;;;;;50.43;24.40;;;;;;;;;;1810678;79;26279;-69
2022/11/14 06:27:29;;;;;;;55.50;25.80;;;;;;;;;;1721568;81;26342;-69
2022/11/14 06:29:58;;;;;;;54.63;25.80;;;;;;;;;;1729496;82;26278;-68
2022/11/14 06:32:28;;;;;;;54.83;25.23;;;;;;;;;;1746515;81;26930;-69
2022/11/14 06:34:56;;;;;;;57.43;26.73;;;;;;;;;;1750824;81;26247;-69
2022/11/14 06:37:25;;;;;;;60.20;26.63;;;;;;;;;;1803242;79;26223;-69
2022/11/14 06:39:53;;;;;;;59.03;27.17;;;;;;;;;;1803216;79;26219;-70
2022/11/14 06:42:21;;;;;;;69.37;27.37;;;;;;;;;;1812372;78;27085;-69
2022/11/14 06:44:51;;;;;;;60.63;26.43;;;;;;;;;;1810784;79;26275;-69
2022/11/14 06:47:19;;;;;;;65.13;27.50;;;;;;;;;;1810187;79;26792;-69
2022/11/14 06:49:48;;;;;;;78.47;27.97;;;;;;;;;;1810428;79;26363;-69
2022/11/14 06:52:16;;;;;;;85.47;29.53;;;;;;;;;;1810406;79;26321;-69
2022/11/14 06:54:45;;;;;;;77.67;28.70;;;;;;;;;;1800956;79;27434;-69
2022/11/14 06:57:13;;;;;;;74.90;30.33;;;;;;;;;;1810256;79;26776;-69
2022/11/14 06:59:42;;;;;;;67.00;29.27;;;;;;;;;;1810579;79;26290;-69
2022/11/14 07:02:13;;;;;;;77.70;30.63;;;;;;;;;;1810247;79;27359;-69
2022/11/14 07:04:41;;;;;;;77.87;32.10;;;;;;;;;;1810166;79;26704;-69
2022/11/14 07:07:10;;;;;;;78.10;31.27;;;;;;;;;;1810584;79;26356;-69
2022/11/14 07:09:38;;;;;;;77.40;30.90;;;;;;;;;;1801076;79;26755;-69
2022/11/14 07:12:09;;;;;;;83.30;32.13;;;;;;;;;;1801261;79;26367;-69
2022/11/14 07:14:38;;;;;;;70.10;31.53;;;;;;;;;;1810653;79;26337;-69
2022/11/14 07:17:06;;;;;;;82.23;32.83;;;;;;;;;;1803023;78;26279;-69
2022/11/14 07:19:35;;;;;;;73.93;31.83;;;;;;;;;;1801092;79;26337;-68
2022/11/14 07:22:04;;;;;;;76.17;32.13;;;;;;;;;;1810603;79;26270;-69
2022/11/14 07:24:32;;;;;;;74.17;32.37;;;;;;;;;;1810803;79;26341;-69
2022/11/14 07:27:01;;;;;;;85.57;33.63;;;;;;;;;;1800911;79;26348;-69
2022/11/14 07:29:29;;;;;;;80.43;32.43;;;;;;;;;;1810436;79;26322;-69
2022/11/14 07:31:57;;;;;;;102.87;34.83;;;;;;;;;;1810453;79;26279;-69
2022/11/14 07:34:26;;;;;;;73.70;30.93;;;;;;;;;;1800574;79;26279;-69
2022/11/14 07:36:55;;;;;;;84.70;33.77;;;;;;;;;;1810490;79;26331;-69
2022/11/14 07:39:23;;;;;;;87.23;33.00;;;;;;;;;;1721258;82;26302;-69
2022/11/14 07:41:52;;;;;;;80.20;33.50;;;;;;;;;;1740598;82;26328;-68
2022/11/14 07:44:20;;;;;;;81.80;33.23;;;;;;;;;;1740433;82;26286;-68
2022/11/14 07:46:50;;;;;;;89.17;32.87;;;;;;;;;;1740311;82;26301;-68
2022/11/14 07:49:19;;;;;;;87.77;33.30;;;;;;;;;;1760575;81;26316;-69
2022/11/14 07:51:47;;;;;;;83.97;32.80;;;;;;;;;;1723745;82;26251;-69
2022/11/14 07:54:18;;;;;;;86.43;32.73;;;;;;;;;;1742464;82;26238;-70
2022/11/14 07:56:46;;;;;;;85.13;34.17;;;;;;;;;;1742514;82;26822;-69
2022/11/14 07:59:14;;;;;;;89.37;33.97;;;;;;;;;;1742426;82;26246;-69
2022/11/14 08:01:43;;;;;;;80.97;33.00;;;;;;;;;;1731554;82;26807;-69
2022/11/14 08:04:11;;;;;;;80.63;33.50;;;;;;;;;;1748426;81;26250;-69
2022/11/14 08:06:39;;;;;;;75.80;30.97;;;;;;;;;;1750515;81;26318;-69
2022/11/14 08:09:08;;;;;;;77.47;32.60;;;;;;;;;;1803004;79;26745;-69
2022/11/14 08:11:50;;;;;;;85.93;33.33;;;;;;;;;;1810463;79;26279;-69
2022/11/14 08:14:18;;;;;;;74.93;32.27;;;;;;;;;;1810798;79;26457;-69
2022/11/14 08:16:47;;;;;;;75.23;32.83;;;;;;;;;;1810616;79;26272;-68
2022/11/14 08:19:15;;;;;;;72.63;31.70;;;;;;;;;;1810801;79;26328;-69
2022/11/14 08:21:43;;;;;;;76.03;31.00;;;;;;;;;;1810434;79;26862;-69
2022/11/14 08:24:12;;;;;;;70.67;31.77;;;;;;;;;;1810183;79;26347;-69
2022/11/14 08:26:43;;;;;;;73.87;33.03;;;;;;;;;;1810291;79;26287;-69
2022/11/14 08:29:11;;;;;;;69.27;30.97;;;;;;;;;;1801168;79;27074;-68
2022/11/14 08:31:40;;;;;;;84.13;31.63;;;;;;;;;;1810213;79;26814;-69
2022/11/14 08:34:08;;;;;;;78.93;32.07;;;;;;;;;;1810243;79;26277;-68
2022/11/14 08:36:37;;;;;;;73.93;32.00;;;;;;;;;;1810429;79;26325;-69
2022/11/14 08:39:05;;;;;;;73.63;32.17;;;;;;;;;;1801246;79;26263;-69
2022/11/14 08:41:34;;;;;;;74.67;31.80;;;;;;;;;;1801236;79;26302;-69
2022/11/14 08:44:02;;;;;;;90.83;31.77;;;;;;;;;;1810285;79;26280;-68
2022/11/14 08:46:31;;;;;;;81.27;32.47;;;;;;;;;;1810290;79;26282;-69
2022/11/14 08:48:59;;;;;;;71.47;31.47;;;;;;;;;;1810576;79;26267;-69
2022/11/14 08:51:27;;;;;;;68.50;31.53;;;;;;;;;;1810504;79;26620;-69
2022/11/14 08:53:57;;;;;;;62.63;30.60;;;;;;;;;;1810383;79;26331;-69
2022/11/14 08:56:25;;;;;;;65.93;30.77;;;;;;;;;;1810378;79;26282;-69
2022/11/14 08:58:53;;;;;;;60.77;30.97;;;;;;;;;;1810431;79;26348;-69
2022/11/14 09:01:22;;;;;;;64.87;30.90;;;;;;;;;;1800604;79;26317;-69
2022/11/14 09:03:50;;;;;;;58.67;29.53;;;;;;;;;;1810399;79;26282;-69
2022/11/14 09:06:19;;;;;;;46.90;27.80;;;;;;;;;;1801126;79;26350;-69
2022/11/14 09:08:47;;;;;;;47.17;28.77;;;;;;;;;;1801173;79;26271;-67
2022/11/14 09:11:15;;;;;;;50.73;30.00;;;;;;;;;;1810777;79;26763;-67
2022/11/14 09:13:44;;;;;;;46.07;29.60;;;;;;;;;;1801050;79;26276;-68
2022/11/14 09:16:12;;;;;;;49.53;29.63;;;;;;;;;;1810280;79;26553;-67
2022/11/14 09:18:40;;;;;;;43.70;27.70;;;;;;;;;;1803632;78;26259;-68
2022/11/14 09:21:10;;;;;;;39.67;26.17;;;;;;;;;;1778628;79;26374;-67
2022/11/14 09:23:38;;;;;;;38.00;25.87;;;;;;;;;;1812378;79;26227;-67
2022/11/14 09:26:07;;;;;;;38.57;26.27;;;;;;;;;;1803018;79;26254;-67
2022/11/14 09:28:36;;;;;;;38.10;27.20;;;;;;;;;;1812217;79;26216;-68
2022/11/14 09:31:05;;;;;;;37.57;26.40;;;;;;;;;;1812013;79;26349;-71
2022/11/14 09:33:35;;;;;;;44.77;26.57;;;;;;;;;;1810809;79;26271;-70
2022/11/14 09:36:04;;;;;;;39.73;26.83;;;;;;;;;;1801740;79;26340;-70
2022/11/14 09:38:32;;;;;;;37.23;25.90;;;;;;;;;;1801099;79;26273;-70
2022/11/14 09:41:06;;;;;;;37.27;25.07;;;;;;;;;;1810691;78;26355;-71
2022/11/14 09:43:39;;;;;;;37.67;24.87;;;;;;;;;;1810616;78;24223;-70
2022/11/14 09:46:13;;;;;;;34.10;25.30;;;;;;;;;;1810335;78;26273;-70
2022/11/14 09:48:41;;;;;;;32.07;23.53;;;;;;;;;;1828624;78;26268;-70
2022/11/14 09:51:11;;;;;;;36.87;25.87;;;;;;;;;;1801216;79;26929;-70
2022/11/14 09:53:42;;;;;;;33.40;24.70;;;;;;;;;;1810773;78;26851;-70
2022/11/14 09:56:13;;;;;;;32.77;23.17;;;;;;;;;;1810447;79;26277;-69
2022/11/14 09:58:42;;;;;;;32.57;24.60;;;;;;;;;;1810598;79;24199;-71
2022/11/14 10:01:11;;;;;;;29.23;23.83;;;;;;;;;;1800539;79;26560;-70
2022/11/14 10:03:43;;;;;;;27.23;22.43;;;;;;;;;;1809918;78;26285;-70
2022/11/14 10:06:17;;;;;;;26.60;21.87;;;;;;;;;;1810467;79;24224;-70
2022/11/14 10:08:48;;;;;;;27.20;22.67;;;;;;;;;;1810304;79;26359;-70
2022/11/14 10:11:18;;;;;;;27.80;23.13;;;;;;;;;;1810120;79;26871;-70
2022/11/14 10:13:56;;;;;;;28.83;22.87;;;;;;;;;;1810577;79;24212;-70
2022/11/14 10:16:26;;;;;;;27.93;23.77;;;;;;;;;;1809406;78;26295;-70
2022/11/14 10:19:05;;;;;;;28.83;22.73;;;;;;;;;;1827715;78;26820;-70
2022/11/14 10:21:41;;;;;;;28.50;23.30;;;;;;;;;;1810366;78;26276;-70
2022/11/14 10:24:13;;;;;;;30.87;23.63;;;;;;;;;;1810679;78;26351;-70
2022/11/14 10:26:43;;;;;;;26.77;21.43;;;;;;;;;;1810388;78;24273;-71
2022/11/14 10:29:27;;;;;;;28.27;22.83;;;;;;;;;;1810454;79;24277;-71
2022/11/14 10:31:58;;;;;;;31.67;23.70;;;;;;;;;;1810168;79;24215;-70
2022/11/14 10:34:29;;;;;;;27.93;23.03;;;;;;;;;;1812215;78;26262;-71
2022/11/14 10:37:00;;;;;;;29.40;24.13;;;;;;;;;;1812145;79;26235;-70
2022/11/14 10:39:31;;;;;;;28.93;23.73;;;;;;;;;;1810699;79;26285;-71
2022/11/14 10:42:01;;;;;;;33.63;23.70;;;;;;;;;;1810438;78;24244;-71
2022/11/14 10:44:31;;;;;;;28.90;23.20;;;;;;;;;;1810312;79;26297;-71
2022/11/14 10:47:03;;;;;;;29.60;24.37;;;;;;;;;;1810310;79;26285;-66
2022/11/14 10:49:32;;;;;;;29.07;22.73;;;;;;;;;;1810559;79;26280;-66
2022/11/14 10:52:02;;;;;;;26.03;22.37;;;;;;;;;;1810521;79;26292;-66
2022/11/14 10:54:33;;;;;;;28.73;22.27;;;;;;;;;;1810209;79;26759;-67
2022/11/14 10:57:02;;;;;;;26.50;22.37;;;;;;;;;;1810479;79;26343;-66
2022/11/14 10:59:31;;;;;;;27.37;22.27;;;;;;;;;;1812220;79;26267;-67
2022/11/14 11:01:59;;;;;;;27.40;21.83;;;;;;;;;;1723126;82;24975;-68
2022/11/14 11:04:29;;;;;;;25.37;22.00;;;;;;;;;;1742356;82;26323;-69
2022/11/14 11:06:59;;;;;;;28.70;21.90;;;;;;;;;;1742432;82;27087;-70
2022/11/14 11:12:16;;;;;;;29.30;22.93;;;;;;;;;;1767756;81;27064;-68
2022/11/14 11:14:45;;;;;;;27.00;21.67;;;;;;;;;;1812344;79;24164;-68
2022/11/14 11:17:23;;;;;;;24.33;21.77;;;;;;;;;;1812182;79;26728;-68
2022/11/14 11:19:52;;;;;;;25.30;22.03;;;;;;;;;;1812324;79;26241;-69
2022/11/14 11:22:38;;;;;;;23.27;20.67;;;;;;;;;;1812319;79;24159;-69
2022/11/14 11:25:23;;;;;;;25.40;20.77;;;;;;;;;;1812154;79;24214;-68
2022/11/14 11:28:04;;;;;;;23.77;20.90;;;;;;;;;;1811070;79;24262;-68
2022/11/14 11:30:33;;;;;;;24.20;19.60;;;;;;;;;;1810303;79;25366;-68
2022/11/14 11:33:16;;;;;;;23.00;20.17;;;;;;;;;;1801425;79;24219;-68
2022/11/14 11:35:45;;;;;;;19.80;17.90;;;;;;;;;;1810634;79;26375;-68
2022/11/14 11:38:14;;;;;;;19.13;17.13;;;;;;;;;;1801132;79;24200;-68
2022/11/14 11:40:44;;;;;;;17.83;16.13;;;;;;;;;;1812324;78;24184;-69
2022/11/14 11:43:14;;;;;;;20.40;16.77;;;;;;;;;;1810760;79;24204;-68
2022/11/14 11:45:46;;;;;;;19.63;16.60;;;;;;;;;;1810698;79;24238;-69
2022/11/14 11:48:16;;;;;;;18.80;16.87;;;;;;;;;;1810716;79;26293;-69
2022/11/14 11:50:44;;;;;;;17.70;16.10;;;;;;;;;;1810094;79;24192;-69
2022/11/14 11:53:15;;;;;;;16.23;14.60;;;;;;;;;;1801132;79;24223;-69
2022/11/14 11:55:44;;;;;;;16.47;14.90;;;;;;;;;;1810423;79;26837;-69
2022/11/14 11:58:16;;;;;;;17.27;15.43;;;;;;;;;;1812129;79;24211;-69
2022/11/14 12:00:44;;;;;;;15.47;13.90;;;;;;;;;;1810087;78;24227;-69
2022/11/14 12:03:13;;;;;;;17.07;15.20;;;;;;;;;;1800516;79;24211;-69
2022/11/14 12:05:44;;;;;;;16.77;15.13;;;;;;;;;;1810502;79;24223;-69
2022/11/14 12:08:15;;;;;;;18.13;16.23;;;;;;;;;;1810459;79;25374;-69
2022/11/14 12:10:44;;;;;;;17.10;14.63;;;;;;;;;;1810273;79;24215;-68
2022/11/14 12:13:30;;;;;;;15.20;12.90;;;;;;;;;;1810743;79;24642;-69
2022/11/14 12:16:02;;;;;;;15.63;14.03;;;;;;;;;;1810442;79;24923;-69
2022/11/14 12:18:42;;;;;;;13.80;12.57;;;;;;;;;;1810233;79;24219;-69
2022/11/14 12:21:12;;;;;;;17.03;13.07;;;;;;;;;;1810150;79;24614;-69
2022/11/14 12:23:50;;;;;;;16.53;14.93;;;;;;;;;;1811649;79;24301;-69
2022/11/14 12:26:26;;;;;;;16.73;15.07;;;;;;;;;;1809781;78;24290;-69
2022/11/14 12:28:59;;;;;;;15.33;13.80;;;;;;;;;;1810496;79;24270;-70
2022/11/14 12:31:28;;;;;;;18.10;14.87;;;;;;;;;;1828175;77;24264;-70
2022/11/14 12:33:59;;;;;;;15.70;14.13;;;;;;;;;;1810406;79;26793;-69
2022/11/14 12:36:28;;;;;;;14.37;13.07;;;;;;;;;;1812209;79;24171;-69
2022/11/14 12:38:57;;;;;;;14.70;13.10;;;;;;;;;;1812262;79;24167;-69
2022/11/14 12:41:26;;;;;;;15.57;13.57;;;;;;;;;;1812246;78;26655;-69
2022/11/14 12:43:56;;;;;;;13.10;11.80;;;;;;;;;;1812212;79;24168;-69
2022/11/14 12:46:25;;;;;;;13.47;11.23;;;;;;;;;;1810668;78;24187;-69
2022/11/14 12:48:53;;;;;;;12.47;11.27;;;;;;;;;;1812359;79;24151;-69
2022/11/14 12:51:39;;;;;;;12.93;11.50;;;;;;;;;;1812164;79;24168;-69
2022/11/14 12:54:09;;;;;;;11.63;10.50;;;;;;;;;;1812268;79;24176;-69
2022/11/14 12:56:50;;;;;;;12.40;11.20;;;;;;;;;;1810664;79;24245;-69
2022/11/14 12:59:34;;;;;;;13.70;12.37;;;;;;;;;;1828426;78;24891;-69
2022/11/14 13:02:22;;;;;;;13.40;11.97;;;;;;;;;;1810221;79;24218;-69
2022/11/14 13:04:55;;;;;;;12.27;11.17;;;;;;;;;;1810480;79;24756;-69
2022/11/14 13:07:27;;;;;;;13.97;12.50;;;;;;;;;;1809786;78;24208;-69
2022/11/14 13:10:01;;;;;;;14.53;12.30;;;;;;;;;;1810499;79;24729;-69
2022/11/14 13:23:55;;;;;;;12.97;11.70;;;;;;;;;;1810697;79;24236;-69
2022/11/14 13:26:41;;;;;;;12.00;11.00;;;;;;;;;;1810598;79;24215;-68
2022/11/14 13:29:11;;;;;;;16.80;11.67;;;;;;;;;;1812123;79;24211;-73
2022/11/14 13:31:47;;;;;;;13.50;11.40;;;;;;;;;;1808861;79;24882;-74
2022/11/14 13:34:33;;;;;;;14.00;10.87;;;;;;;;;;1810207;79;25251;-74
2022/11/14 13:37:03;;;;;;;11.50;10.40;;;;;;;;;;1810451;79;24226;-75
2022/11/14 13:39:33;;;;;;;12.17;10.97;;;;;;;;;;1809914;78;26755;-74
2022/11/14 13:42:11;;;;;;;13.00;11.70;;;;;;;;;;1739934;82;24358;-74
2022/11/14 13:44:46;;;;;;;15.83;11.97;;;;;;;;;;1740578;82;24330;-74
2022/11/14 13:47:36;;;;;;;13.70;11.00;;;;;;;;;;1758348;81;24216;-74
2022/11/14 13:50:06;;;;;;;16.83;15.13;;;;;;;;;;1758841;81;24250;-61
2022/11/14 13:52:35;;;;;;;17.57;15.73;;;;;;;;;;1766277;81;24238;-61
2022/11/14 13:55:04;;;;;;;17.07;15.37;;;;;;;;;;1800950;79;27387;-62
2022/11/14 13:57:36;;;;;;;15.83;14.43;;;;;;;;;;1810177;79;26285;-62
2022/11/14 14:00:11;;;;;;;19.53;15.13;;;;;;;;;;1810367;79;24203;-62
2022/11/14 14:02:53;;;;;;;17.93;14.70;;;;;;;;;;1812296;79;26272;-62
2022/11/14 14:05:23;;;;;;;16.10;14.50;;;;;;;;;;1812441;79;24217;-61
2022/11/14 14:07:54;;;;;;;15.40;13.80;;;;;;;;;;1810713;79;26265;-63
2022/11/14 14:10:25;;;;;;;15.03;13.30;;;;;;;;;;1810180;78;24716;-62
2022/11/14 14:13:01;;;;;;;14.77;13.13;;;;;;;;;;1800993;79;26874;-61
2022/11/14 14:15:31;;;;;;;14.60;13.07;;;;;;;;;;1810564;79;24215;-66
2022/11/14 14:18:03;;;;;;;15.70;14.03;;;;;;;;;;1810296;79;24231;-62
2022/11/14 14:20:34;;;;;;;14.40;13.00;;;;;;;;;;1810434;79;24836;-64
2022/11/14 14:23:04;;;;;;;15.03;13.43;;;;;;;;;;1810429;78;24219;-62
2022/11/14 14:25:33;;;;;;;15.83;13.07;;;;;;;;;;1812067;78;24246;-61
2022/11/14 14:28:05;;;;;;;15.00;13.30;;;;;;;;;;1829708;78;26782;-61
2022/11/14 14:30:33;;;;;;;15.23;13.87;;;;;;;;;;1812370;79;24172;-61
2022/11/14 14:33:10;;;;;;;16.27;14.67;;;;;;;;;;1803124;79;24227;-61
2022/11/14 14:35:39;;;;;;;15.27;12.97;;;;;;;;;;1812396;79;26308;-62
2022/11/14 14:38:11;;;;;;;16.70;15.17;;;;;;;;;;1812650;79;24164;-62
2022/11/14 14:40:41;;;;;;;17.03;15.30;;;;;;;;;;1812360;78;24221;-62
2022/11/14 14:43:14;;;;;;;18.30;16.50;;;;;;;;;;1802905;79;26675;-62
2022/11/14 14:45:46;;;;;;;18.77;16.93;;;;;;;;;;1812079;78;26222;-62
2022/11/14 14:48:16;;;;;;;18.07;16.30;;;;;;;;;;1812362;79;24172;-62